createdAt,value
2022-10-25T00:00:39.839Z,12.28
2022-10-25T00:03:11.366Z,12.23
2022-10-25T00:05:39.240Z,12.23
2022-10-25T00:08:06.292Z,12.17
2022-10-25T00:10:33.869Z,12.20
2022-10-25T00:13:00.310Z,12.09
2022-10-25T00:15:27.171Z,12.18
2022-10-25T00:17:53.793Z,12.22
2022-10-25T00:20:20.620Z,12.16
2022-10-25T00:22:47.424Z,12.11
2022-10-25T00:25:14.189Z,12.13
2022-10-25T00:27:40.638Z,12.06
2022-10-25T00:30:08.189Z,12.14
2022-10-25T00:32:35.129Z,11.93
2022-10-25T00:35:01.973Z,11.99
2022-10-25T00:37:28.525Z,12.06
2022-10-25T00:39:54.931Z,11.97
2022-10-25T00:42:24.438Z,11.95
2022-10-25T00:45:02.101Z,11.99
2022-10-25T00:47:32.810Z,12.11
2022-10-25T00:50:22.872Z,11.96
2022-10-25T00:52:53.484Z,11.98
2022-10-25T00:55:24.008Z,12.03
2022-10-25T00:57:56.702Z,11.87
2022-10-25T01:00:23.219Z,11.86
2022-10-25T01:02:49.813Z,11.68
2022-10-25T01:08:57.572Z,11.89
2022-10-25T01:11:25.173Z,12.00
2022-10-25T01:13:52.426Z,11.86
2022-10-25T01:16:28.323Z,12.04
2022-10-25T01:19:11.697Z,11.92
2022-10-25T01:21:50.813Z,12.00
2022-10-25T01:24:56.365Z,11.93
2022-10-25T01:27:44.580Z,11.90
2022-10-25T01:30:23.711Z,12.01
2022-10-25T01:33:08.586Z,12.09
2022-10-25T01:39:04.509Z,12.05
2022-10-25T01:41:41.767Z,11.95
2022-10-25T01:44:29.109Z,12.24
2022-10-25T01:47:04.152Z,12.26
2022-10-25T01:49:44.347Z,12.21
2022-10-25T01:52:10.807Z,11.97
2022-10-25T01:54:37.364Z,12.30
2022-10-25T01:57:15.296Z,12.22
2022-10-25T01:59:56.127Z,12.19
2022-10-25T02:02:36.975Z,12.10
2022-10-25T02:05:25.109Z,12.22
2022-10-25T02:08:03.426Z,12.23
2022-10-25T02:10:40.463Z,12.35
2022-10-25T02:13:27.069Z,12.33
2022-10-25T02:16:09.306Z,12.23
2022-10-25T02:18:39.522Z,12.18
2022-10-25T02:21:06.878Z,12.31
2022-10-25T02:23:36.074Z,12.37
2022-10-25T02:26:06.017Z,12.34
2022-10-25T02:28:35.861Z,12.49
2022-10-25T02:31:02.397Z,12.38
2022-10-25T02:33:29.220Z,12.40
2022-10-25T02:36:09.451Z,12.30
2022-10-25T02:38:36.221Z,12.57
2022-10-25T02:41:04.436Z,12.10
2022-10-25T02:43:30.883Z,12.27
2022-10-25T02:45:57.344Z,12.36
2022-10-25T02:48:23.865Z,12.11
2022-10-25T02:50:50.388Z,12.26
2022-10-25T02:53:16.819Z,12.33
2022-10-25T02:55:43.244Z,12.29
2022-10-25T02:58:09.778Z,12.24
2022-10-25T03:00:36.249Z,12.20
2022-10-25T03:03:02.785Z,12.13
2022-10-25T03:05:29.177Z,12.24
2022-10-25T03:07:55.600Z,12.10
2022-10-25T03:10:21.993Z,12.25
2022-10-25T03:12:48.720Z,12.26
2022-10-25T03:15:15.587Z,12.12
2022-10-25T03:17:42.035Z,12.16
2022-10-25T03:20:09.087Z,12.19
2022-10-25T03:22:35.486Z,12.29
2022-10-25T03:25:01.918Z,12.26
2022-10-25T03:27:28.354Z,12.20
2022-10-25T03:29:54.868Z,12.26
2022-10-25T03:32:21.261Z,12.20
2022-10-25T03:34:47.660Z,12.34
2022-10-25T03:37:14.061Z,12.22
2022-10-25T03:39:40.662Z,12.40
2022-10-25T03:42:07.041Z,12.29
2022-10-25T03:44:33.479Z,12.31
2022-10-25T03:46:59.869Z,12.30
2022-10-25T03:49:26.580Z,12.19
2022-10-25T03:51:57.046Z,12.36
2022-10-25T03:54:29.124Z,12.50
2022-10-25T03:56:55.885Z,12.22
2022-10-25T03:59:22.285Z,12.38
2022-10-25T04:01:49.012Z,12.37
2022-10-25T04:04:15.640Z,12.33
2022-10-25T04:06:42.047Z,12.39
2022-10-25T04:09:08.536Z,12.40
2022-10-25T04:11:35.054Z,12.46
2022-10-25T04:14:01.689Z,12.37
2022-10-25T04:16:28.709Z,12.41
2022-10-25T04:18:55.274Z,12.48
2022-10-25T04:21:21.978Z,12.36
2022-10-25T04:23:49.844Z,12.41
2022-10-25T04:26:20.264Z,12.31
2022-10-25T04:28:51.582Z,12.41
2022-10-25T04:31:18.528Z,12.26
2022-10-25T04:33:51.942Z,12.21
2022-10-25T04:36:18.799Z,12.33
2022-10-25T04:38:51.424Z,12.20
2022-10-25T04:41:18.769Z,12.43
2022-10-25T04:43:45.973Z,12.33
2022-10-25T04:46:13.329Z,12.27
2022-10-25T04:48:41.263Z,12.05
2022-10-25T04:51:08.746Z,12.04
2022-10-25T04:53:35.222Z,12.02
2022-10-25T04:56:09.976Z,12.13
2022-10-25T04:58:36.786Z,12.00
2022-10-25T05:01:09.168Z,11.95
2022-10-25T05:03:35.886Z,11.90
2022-10-25T05:06:14.563Z,11.97
2022-10-25T05:08:43.191Z,11.88
2022-10-25T05:11:11.752Z,11.86
2022-10-25T05:13:39.449Z,11.76
2022-10-25T05:16:07.029Z,11.77
2022-10-25T05:18:34.565Z,11.71
2022-10-25T05:21:04.701Z,11.81
2022-10-25T05:23:32.710Z,11.75
2022-10-25T05:26:13.698Z,11.62
2022-10-25T05:28:41.919Z,11.52
2022-10-25T05:31:22.613Z,11.66
2022-10-25T05:33:51.517Z,11.77
2022-10-25T05:36:18.418Z,11.74
2022-10-25T05:38:44.941Z,11.76
2022-10-25T05:41:13.290Z,11.78
2022-10-25T05:43:40.161Z,11.68
2022-10-25T05:46:10.752Z,11.74
2022-10-25T05:48:37.997Z,11.67
2022-10-25T05:51:36.581Z,11.62
2022-10-25T05:54:15.013Z,11.72
2022-10-25T05:56:42.762Z,11.73
2022-10-25T05:59:14.432Z,11.87
2022-10-25T06:01:46.201Z,11.64
2022-10-25T06:04:13.640Z,11.92
2022-10-25T06:06:41.422Z,11.63
2022-10-25T06:09:08.552Z,11.76
2022-10-25T06:11:35.399Z,11.89
2022-10-25T06:14:01.982Z,12.00
2022-10-25T06:16:28.706Z,11.93
2022-10-25T06:18:55.248Z,11.91
2022-10-25T06:21:24.449Z,11.97
2022-10-25T06:23:51.585Z,11.92
2022-10-25T06:26:26.898Z,12.02
2022-10-25T06:28:59.280Z,12.01
2022-10-25T06:31:26.657Z,12.18
2022-10-25T06:33:53.151Z,12.07
2022-10-25T06:36:22.464Z,12.25
2022-10-25T06:38:50.304Z,12.17
2022-10-25T06:41:20.229Z,12.20
2022-10-25T06:43:47.476Z,12.19
2022-10-25T06:46:24.148Z,12.29
2022-10-25T06:48:52.488Z,12.51
2022-10-25T06:51:19.279Z,12.43
2022-10-25T06:53:46.623Z,12.50
2022-10-25T06:56:15.003Z,12.48
2022-10-25T06:58:42.006Z,12.60
2022-10-25T07:01:13.074Z,12.47
2022-10-25T07:03:40.183Z,12.66
2022-10-25T07:06:14.713Z,12.63
2022-10-25T07:08:43.460Z,12.44
2022-10-25T07:11:15.061Z,12.52
2022-10-25T07:13:41.622Z,12.51
2022-10-25T07:16:11.220Z,12.71
2022-10-25T07:18:38.010Z,12.67
2022-10-25T07:21:11.091Z,12.85
2022-10-25T07:23:42.032Z,12.77
2022-10-25T07:26:13.113Z,13.09
2022-10-25T07:28:40.728Z,12.88
2022-10-25T07:31:08.065Z,12.88
2022-10-25T07:33:34.479Z,12.68
2022-10-25T07:36:11.144Z,12.79
2022-10-25T07:38:38.503Z,12.76
2022-10-25T07:41:05.606Z,13.01
2022-10-25T07:43:32.129Z,12.97
2022-10-25T07:45:58.531Z,13.04
2022-10-25T07:48:25.036Z,13.35
2022-10-25T07:50:51.607Z,13.13
2022-10-25T07:53:18.414Z,13.14
2022-10-25T07:55:55.676Z,13.15
2022-10-25T07:58:22.401Z,13.41
2022-10-25T08:00:49.063Z,13.08
2022-10-25T08:03:16.902Z,12.96
2022-10-25T08:05:45.296Z,12.96
2022-10-25T08:08:12.485Z,13.28
2022-10-25T08:10:39.022Z,13.27
2022-10-25T08:13:05.455Z,13.30
2022-10-25T08:15:31.890Z,13.24
2022-10-25T08:18:02.146Z,13.44
2022-10-25T08:20:49.571Z,12.96
2022-10-25T08:23:16.069Z,13.05
2022-10-25T08:25:42.635Z,12.95
2022-10-25T08:28:09.331Z,12.72
2022-10-25T08:30:35.792Z,12.80
2022-10-25T08:33:02.383Z,12.74
2022-10-25T08:35:28.871Z,12.75
2022-10-25T08:37:55.278Z,12.72
2022-10-25T08:40:26.571Z,12.92
2022-10-25T08:43:15.308Z,12.99
2022-10-25T08:45:53.984Z,12.92
2022-10-25T08:48:26.475Z,13.13
2022-10-25T08:50:57.708Z,13.15
2022-10-25T08:53:30.214Z,13.06
2022-10-25T08:56:15.200Z,12.97
2022-10-25T08:58:49.687Z,13.61
2022-10-25T09:01:25.102Z,13.46
2022-10-25T09:03:51.691Z,13.37
2022-10-25T09:06:55.580Z,13.44
2022-10-25T09:09:34.985Z,13.79
2022-10-25T09:12:16.262Z,13.54
2022-10-25T09:15:29.184Z,13.47
2022-10-25T09:17:55.576Z,13.54
2022-10-25T09:20:29.678Z,13.92
2022-10-25T09:23:08.242Z,14.22
2022-10-25T09:25:47.366Z,13.97
2022-10-25T09:28:25.102Z,14.66
2022-10-25T09:30:57.245Z,14.88
2022-10-25T09:33:30.359Z,15.77
2022-10-25T09:35:58.654Z,15.89
2022-10-25T09:38:34.666Z,16.63
2022-10-25T09:41:16.397Z,17.44
2022-10-25T09:43:45.780Z,17.71
2022-10-25T09:46:18.162Z,17.59
2022-10-25T09:49:00.977Z,16.86
2022-10-25T09:51:35.951Z,16.86
2022-10-25T09:54:13.551Z,16.84
2022-10-25T09:56:40.196Z,17.01
2022-10-25T09:59:08.380Z,16.50
2022-10-25T10:01:38.552Z,15.95
2022-10-25T10:04:24.661Z,15.73
2022-10-25T10:06:53.700Z,15.40
2022-10-25T10:09:20.351Z,15.49
2022-10-25T10:11:48.716Z,15.16
2022-10-25T10:14:26.967Z,15.14
2022-10-25T10:16:56.247Z,15.52
2022-10-25T10:19:29.882Z,15.34
2022-10-25T10:22:00.625Z,14.92
2022-10-25T10:24:30.181Z,15.07
2022-10-25T10:27:07.509Z,14.73
2022-10-25T10:29:39.318Z,14.38
2022-10-25T10:32:22.588Z,14.39
2022-10-25T10:34:55.071Z,14.48
2022-10-25T10:37:23.983Z,14.38
2022-10-25T10:39:53.203Z,14.36
2022-10-25T10:45:04.338Z,14.39
2022-10-25T10:47:36.948Z,14.48
2022-10-25T10:50:13.836Z,14.45
2022-10-25T10:52:44.515Z,14.37
2022-10-25T10:55:35.345Z,14.44
2022-10-25T10:58:05.655Z,15.03
2022-10-25T11:00:33.542Z,15.00
2022-10-25T11:03:00.763Z,15.41
2022-10-25T11:05:31.529Z,15.27
2022-10-25T11:08:17.293Z,15.79
2022-10-25T11:10:43.719Z,16.05
2022-10-25T11:13:20.874Z,17.00
2022-10-25T11:16:04.340Z,17.51
2022-10-25T11:18:42.378Z,17.94
2022-10-25T11:21:25.605Z,17.70
2022-10-25T11:24:15.082Z,18.05
2022-10-25T11:27:19.657Z,18.06
2022-10-25T11:29:48.751Z,18.06
2022-10-25T11:32:20.979Z,18.39
2022-10-25T11:34:53.273Z,18.41
2022-10-25T11:37:29.849Z,18.55
2022-10-25T11:40:16.653Z,18.65
2022-10-25T11:43:04.696Z,18.40
2022-10-25T11:45:49.762Z,19.78
2022-10-25T11:48:34.973Z,20.61
2022-10-25T11:51:35.165Z,22.20
2022-10-25T11:54:23.734Z,22.88
2022-10-25T11:57:12.017Z,23.16
2022-10-25T11:59:49.885Z,22.59
2022-10-25T12:02:34.388Z,23.88
2022-10-25T12:05:19.626Z,22.37
2022-10-25T12:07:48.721Z,20.72
2022-10-25T12:10:23.721Z,19.14
2022-10-25T12:12:55.803Z,18.60
2022-10-25T12:15:39.251Z,17.39
2022-10-25T12:18:09.960Z,16.76
2022-10-25T12:20:37.206Z,16.97
2022-10-25T12:23:10.629Z,17.17
2022-10-25T12:26:02.129Z,16.56
2022-10-25T12:28:48.593Z,16.75
2022-10-25T12:31:27.288Z,16.54
2022-10-25T12:34:03.703Z,16.25
2022-10-25T12:36:39.338Z,15.98
2022-10-25T12:39:45.066Z,15.93
2022-10-25T12:42:35.865Z,15.93
2022-10-25T12:45:14.246Z,16.09
2022-10-25T12:47:59.539Z,15.81
2022-10-25T12:50:50.398Z,15.89
2022-10-25T12:53:53.886Z,15.73
2022-10-25T12:56:38.401Z,15.71
2022-10-25T12:59:44.607Z,15.58
2022-10-25T13:02:43.216Z,15.74
2022-10-25T13:05:47.198Z,15.92
2022-10-25T13:08:17.921Z,16.12
2022-10-25T13:10:50.313Z,16.08
2022-10-25T13:13:23.544Z,15.73
2022-10-25T13:15:52.939Z,15.62
2022-10-25T13:18:31.559Z,15.54
2022-10-25T13:20:59.399Z,15.76
2022-10-25T13:23:58.379Z,15.38
2022-10-25T13:26:27.137Z,15.37
2022-10-25T13:28:56.388Z,15.32
2022-10-25T13:31:30.147Z,15.35
2022-10-25T13:34:14.562Z,15.04
2022-10-25T13:36:52.577Z,14.98
2022-10-25T13:39:43.500Z,14.69
2022-10-25T13:42:16.142Z,14.79
2022-10-25T13:45:04.346Z,14.46
2022-10-25T13:47:33.749Z,14.70
2022-10-25T13:50:00.631Z,14.90
2022-10-25T13:52:33.997Z,14.76
2022-10-25T13:55:06.188Z,14.67
2022-10-25T13:57:52.749Z,14.62
2022-10-25T14:00:57.771Z,14.70
2022-10-25T14:03:46.069Z,14.75
2022-10-25T14:06:26.169Z,14.85
2022-10-25T14:09:11.043Z,14.88
2022-10-25T14:11:48.475Z,14.77
2022-10-25T14:14:56.752Z,14.85
2022-10-25T14:17:37.629Z,14.97
2022-10-25T14:20:23.035Z,14.81
2022-10-25T14:23:00.273Z,14.94
2022-10-25T14:25:39.679Z,14.88
2022-10-25T14:28:17.461Z,14.77
2022-10-25T14:30:46.975Z,14.75
2022-10-25T14:33:19.479Z,14.70
2022-10-25T14:35:49.203Z,14.38
2022-10-25T14:38:19.010Z,14.49
2022-10-25T14:41:03.747Z,14.70
2022-10-25T14:43:38.130Z,14.63
2022-10-25T14:46:15.417Z,14.52
2022-10-25T14:48:47.465Z,14.53
2022-10-25T14:51:21.533Z,14.53
2022-10-25T14:53:53.533Z,14.54
2022-10-25T14:56:42.246Z,14.36
2022-10-25T14:59:29.321Z,14.34
2022-10-25T15:02:06.008Z,14.34
2022-10-25T15:04:38.562Z,14.33
2022-10-25T15:07:06.389Z,14.34
2022-10-25T15:09:48.991Z,14.29
2022-10-25T15:12:17.137Z,14.32
2022-10-25T15:14:43.876Z,14.17
2022-10-25T15:17:22.617Z,14.00
2022-10-25T15:22:37.243Z,13.87
2022-10-25T15:25:22.526Z,13.74
2022-10-25T15:27:54.744Z,13.92
2022-10-25T15:30:36.661Z,14.00
2022-10-25T15:33:05.135Z,14.11
2022-10-25T15:35:38.671Z,14.06
2022-10-25T15:38:05.759Z,13.71
2022-10-25T15:40:32.169Z,13.89
2022-10-25T15:42:58.545Z,14.10
2022-10-25T15:45:25.015Z,13.80
2022-10-25T15:47:53.404Z,13.84
2022-10-25T15:50:20.028Z,13.89
2022-10-25T15:52:46.786Z,13.82
2022-10-25T15:55:23.056Z,13.80
2022-10-25T15:57:50.407Z,13.73
2022-10-25T16:00:25.533Z,13.76
2022-10-25T16:02:54.637Z,13.69
2022-10-25T16:05:35.673Z,13.67
2022-10-25T16:08:02.674Z,13.57
2022-10-25T16:10:29.839Z,13.60
2022-10-25T16:13:03.965Z,13.50
2022-10-25T16:15:31.171Z,13.44
2022-10-25T16:17:57.756Z,13.46
2022-10-25T16:20:27.539Z,13.45
2022-10-25T16:22:55.498Z,13.35
2022-10-25T16:25:27.921Z,13.16
2022-10-25T16:27:58.596Z,13.22
2022-10-25T16:30:27.081Z,13.25
2022-10-25T16:32:53.500Z,13.28
2022-10-25T16:35:24.182Z,13.20
2022-10-25T16:37:51.714Z,13.15
2022-10-25T16:40:19.748Z,13.09
2022-10-25T16:42:47.092Z,13.05
2022-10-25T16:45:27.532Z,13.12
2022-10-25T16:47:57.670Z,13.11
2022-10-25T16:50:26.031Z,13.06
2022-10-25T16:52:54.517Z,13.00
2022-10-25T16:55:21.435Z,13.01
2022-10-25T17:00:15.399Z,12.88
2022-10-25T17:02:41.962Z,12.78
2022-10-25T17:05:17.722Z,12.67
2022-10-25T17:07:45.658Z,12.56
2022-10-25T17:10:14.225Z,12.63
2022-10-25T17:12:55.625Z,12.69
2022-10-25T17:15:22.104Z,12.67
2022-10-25T17:17:48.749Z,12.64
2022-10-25T17:20:17.200Z,12.65
2022-10-25T17:22:44.160Z,12.59
2022-10-25T17:25:11.295Z,12.66
2022-10-25T17:27:39.886Z,12.65
2022-10-25T17:30:08.052Z,12.56
2022-10-25T17:32:34.545Z,12.59
2022-10-25T17:35:01.346Z,12.63
2022-10-25T17:37:28.216Z,12.44
2022-10-25T17:39:54.745Z,12.42
2022-10-25T17:42:21.176Z,12.43
2022-10-25T17:44:47.751Z,12.43
2022-10-25T17:47:14.910Z,12.31
2022-10-25T17:49:41.647Z,12.30
2022-10-25T17:52:09.509Z,12.41
2022-10-25T17:54:37.517Z,12.46
2022-10-25T17:57:05.743Z,12.45
2022-10-25T17:59:32.854Z,12.27
2022-10-25T18:01:59.651Z,12.32
2022-10-25T18:04:26.227Z,12.24
2022-10-25T18:06:52.672Z,12.20
2022-10-25T18:09:19.353Z,12.24
2022-10-25T18:11:45.896Z,12.30
2022-10-25T18:14:12.360Z,12.30
2022-10-25T18:16:38.855Z,12.22
2022-10-25T18:19:06.250Z,12.13
2022-10-25T18:21:33.322Z,12.18
2022-10-25T18:24:02.188Z,12.18
2022-10-25T18:26:29.148Z,12.04
2022-10-25T18:28:57.625Z,12.04
2022-10-25T18:31:26.972Z,12.05
2022-10-25T18:33:59.007Z,12.11
2022-10-25T18:36:27.610Z,12.08
2022-10-25T18:38:54.671Z,12.08
2022-10-25T18:41:28.128Z,12.04
2022-10-25T18:43:55.827Z,12.09
2022-10-25T18:46:23.511Z,11.98
2022-10-25T18:48:51.575Z,11.92
2022-10-25T18:51:19.509Z,11.86
2022-10-25T18:53:45.957Z,11.66
2022-10-25T18:56:17.101Z,11.80
2022-10-25T18:58:46.654Z,11.72
2022-10-25T19:01:15.525Z,11.74
2022-10-25T19:03:42.788Z,11.89
2022-10-25T19:06:09.885Z,11.82
2022-10-25T19:08:37.176Z,11.82
2022-10-25T19:11:08.958Z,11.86
2022-10-25T19:13:36.113Z,11.84
2022-10-25T19:16:02.845Z,11.83
2022-10-25T19:18:31.096Z,11.78
2022-10-25T19:21:06.333Z,11.77
2022-10-25T19:23:33.050Z,11.79
2022-10-25T19:26:08.388Z,11.81
2022-10-25T19:28:34.936Z,11.73
2022-10-25T19:31:06.574Z,11.72
2022-10-25T19:33:32.923Z,11.75
2022-10-25T19:36:07.831Z,11.69
2022-10-25T19:38:38.814Z,11.49
2022-10-25T19:41:08.170Z,11.44
2022-10-25T19:43:36.085Z,11.37
2022-10-25T19:46:05.096Z,11.45
2022-10-25T19:48:32.833Z,11.34
2022-10-25T19:51:07.801Z,11.39
2022-10-25T19:53:34.626Z,11.35
2022-10-25T19:56:03.258Z,11.37
2022-10-25T19:58:29.862Z,11.18
2022-10-25T20:01:20.413Z,11.28
2022-10-25T20:03:50.669Z,11.32
2022-10-25T20:06:24.398Z,11.31
2022-10-25T20:08:52.233Z,11.25
2022-10-25T20:11:18.980Z,11.27
2022-10-25T20:13:45.957Z,11.11
2022-10-25T20:16:13.755Z,11.14
2022-10-25T20:18:41.487Z,11.16
2022-10-25T20:21:17.446Z,11.17
2022-10-25T20:23:49.270Z,11.04
2022-10-25T20:26:18.808Z,10.94
2022-10-25T20:28:45.739Z,10.81
2022-10-25T20:31:12.779Z,10.84
2022-10-25T20:33:40.309Z,10.85
2022-10-25T20:36:08.802Z,10.86
2022-10-25T20:38:36.748Z,10.96
2022-10-25T20:41:24.138Z,10.94
2022-10-25T20:43:55.930Z,10.88
2022-10-25T20:46:24.334Z,10.90
2022-10-25T20:48:51.345Z,10.83
2022-10-25T20:51:18.082Z,10.80
2022-10-25T20:53:45.775Z,10.82
2022-10-25T20:56:13.151Z,10.90
2022-10-25T20:58:39.678Z,10.80
2022-10-25T21:01:06.370Z,10.59
2022-10-25T21:03:33.647Z,10.80
2022-10-25T21:06:03.320Z,10.87
2022-10-25T21:08:30.572Z,10.76
2022-10-25T21:11:01.795Z,10.79
2022-10-25T21:13:33.585Z,10.72
2022-10-25T21:16:06.006Z,10.65
2022-10-25T21:18:32.794Z,10.67
2022-10-25T21:21:04.659Z,10.60
2022-10-25T21:23:32.058Z,10.42
2022-10-25T21:26:03.639Z,10.45
2022-10-25T21:28:38.728Z,10.52
2022-10-25T21:31:07.652Z,10.46
2022-10-25T21:33:34.160Z,10.47
2022-10-25T21:36:09.536Z,10.32
2022-10-25T21:38:36.209Z,10.44
2022-10-25T21:41:16.976Z,10.42
2022-10-25T21:43:45.535Z,10.29
2022-10-25T21:46:13.008Z,10.36
2022-10-25T21:48:39.498Z,10.32
2022-10-25T21:51:06.220Z,10.35
2022-10-25T21:53:33.302Z,10.32
2022-10-25T21:56:11.194Z,10.22
2022-10-25T21:58:39.099Z,10.26
2022-10-25T22:01:11.090Z,10.25
2022-10-25T22:03:38.558Z,10.39
2022-10-25T22:06:06.738Z,10.20
2022-10-25T22:08:33.503Z,10.16
2022-10-25T22:11:05.404Z,10.23
2022-10-25T22:13:31.912Z,10.37
2022-10-25T22:16:01.666Z,10.33
2022-10-25T22:18:28.394Z,10.30
2022-10-25T22:21:00.668Z,10.35
2022-10-25T22:23:30.229Z,10.29
2022-10-25T22:26:05.314Z,10.34
2022-10-25T22:28:34.341Z,10.34
2022-10-25T22:31:08.580Z,10.26
2022-10-25T22:33:36.080Z,10.16
2022-10-25T22:36:09.962Z,10.09
2022-10-25T22:38:36.821Z,10.20
2022-10-25T22:41:06.633Z,10.24
2022-10-25T22:43:36.877Z,10.20
2022-10-25T22:46:05.819Z,10.14
2022-10-25T22:48:34.939Z,10.08
2022-10-25T22:51:01.437Z,10.08
2022-10-25T22:53:28.419Z,10.08
2022-10-25T22:56:08.210Z,10.02
2022-10-25T22:58:35.554Z,9.99
2022-10-25T23:01:12.960Z,10.06
2022-10-25T23:03:44.487Z,9.99
2022-10-25T23:06:13.563Z,9.89
2022-10-25T23:08:40.531Z,9.86
2022-10-25T23:11:27.906Z,9.67
2022-10-25T23:13:54.342Z,9.77
2022-10-25T23:16:20.880Z,9.85
2022-10-25T23:18:47.368Z,9.80
2022-10-25T23:21:15.897Z,9.81
2022-10-25T23:23:42.774Z,9.92
2022-10-25T23:26:14.506Z,9.94
2022-10-25T23:28:40.830Z,9.87
2022-10-25T23:31:09.902Z,9.71
2022-10-25T23:33:36.691Z,9.66
2022-10-25T23:36:15.429Z,9.62
2022-10-25T23:38:45.034Z,9.69
2022-10-25T23:41:12.211Z,9.73
2022-10-25T23:43:39.266Z,9.60
2022-10-25T23:46:06.468Z,9.57
2022-10-25T23:48:33.264Z,9.59
2022-10-25T23:51:06.123Z,9.62
2022-10-25T23:53:33.319Z,9.58
2022-10-25T23:55:59.795Z,9.57
2022-10-25T23:58:26.679Z,9.40
